1. Accueil
  2. Comparatif enneigement

Enneigement des stations de ski des Alpes du Sud

Station Dernière chute Etat de la neige Pistes ouvertes Niveau bas station Niveau haut station
L'Alpe d'Huez 19/02/24 Fraîche 98/135 20 cm 430 cm
Orcières Merlette 13/02/24 Douce 50/51 30 cm 170 cm
Puy Saint Vincent 11/02/24 Douce 31/35 42 cm 283 cm
Crévoux 11/02/24 Fraiche 14/16 10 cm 155 cm
Les Orres 11/02/24 Dure 35/37 50 cm 160 cm
Serre Chevalier 11/02/24 Dure 71/81 18 cm 150 cm
Le Grand Puy - Seyne les Alpes 11/02/24 douce 4/13 30 cm 30 cm
Chaillol 11/02/24 DOUCE 11/13 50 cm 100 cm
SuperDévoluy - La Joue du Loup 10/02/24 Douce 37/55 5 cm 40 cm
Vars 10/02/24 N.C. 57/115 35 cm 160 cm
Risoul 10/02/24 Douce 42/115 50 cm 120 cm
Valberg 10/02/24 NC 22/56 35 cm 55 cm
La Colmiane 10/02/24 damée 10/21 35 cm 45 cm
Auron 10/02/24 Fraîche 39/43 50 cm 90 cm
Montgenèvre 10/02/24 NC 138/74 80 cm 190 cm
Ancelle 10/02/24 Fraiche 14/20 40 cm 40 cm
Chabanon Selonnet 10/02/24 Fraîche 21/35 40 cm 60 cm
Saint Jean Montclar 10/02/24 Douce 17/33 25 cm 105 cm
Réallon 10/02/24 Neige de printemps 10/13 10 cm 130 cm
Pelvoux 10/02/24 humide 10/18 40 cm 140 cm
Sainte-Anne La Condamine 10/02/24 Humide 10/13 35 cm 115 cm
Isola 2000 10/02/24 Dure 37/42 90 cm 120 cm
L'Audibergue 11/01/24 NC 0/23 0 cm 5 cm
Gréolières 11/01/24 Dammée 5/21 20 cm 0 cm
St Léger les Mélèzes 11/01/24 DE PRINTEMPS 12/16 35 cm 70 cm
Laye 10/01/24 DE PRINTEMPS 1/12 20 cm 30 cm
Les 2 Alpes 09/01/24 Douce 73/96 30 cm 200 cm
Larche non disponible 0/4 5 cm 10 cm
Mont Ventoux - Mont Serein non disponible 0/16 0 cm 0 cm
Roubion non disponible Station ouverte 12/21 40 cm 40 cm
Aiguilles non disponible 5/6 40 cm 40 cm
Pra Loup non disponible Douce 21/50 15 cm 150 cm
Val Pelens non disponible Station fermée 0/7 0 cm 0 cm
Mont Ventoux Sud non disponible Station fermée 0/7 0 cm 0 cm
La Foux d'Allos non disponible NC 0/40 0 cm 0 cm
Serre Eyraud non disponible N.C. 0/8 0 cm 0 cm
Sauze-Super Sauze non disponible N.C. 0/36 0 cm 0 cm
Val d'Allos - Le Seignus non disponible NC 0/24 0 cm 0 cm
Molines - St Véran non disponible NC 0/30 0 cm 0 cm
Abries - Ristolas non disponible NC 0/16 0 cm 0 cm
Arvieux non disponible NC 0/15 0 cm 0 cm
Ceillac non disponible NC 0/15 0 cm 0 cm
publicité

 

Page réalisée en partenariat avec - © Ski France